Time;durP1;ratioP1;P1;durP2;ratioP2;P2;SDS_P1;SDS_P2;PMS_P1;PMS_P2;Temp;Humidity;BMP_temperature;BMP_pressure;BME280_temperature;BME280_humidity;BME280_pressure;Samples;Min_cycle;Max_cycle;Signal;HPM_P1;HPM_P2
2023/09/29 00:00:17;;;;;;;;;7.00;4.75;;;;;23.26;53.99;101051.97;4920744;28;54195;-53
2023/09/29 00:02:44;;;;;;;;;3.75;3.00;;;;;23.24;54.11;101048.59;4920796;28;45285;-49
2023/09/29 00:05:10;;;;;;;;;4.00;3.25;;;;;23.23;54.31;101054.81;4920868;28;45180;-46
2023/09/29 00:07:35;;;;;;;;;3.00;3.00;;;;;23.22;53.84;101051.34;4920969;28;45561;-42
2023/09/29 00:10:01;;;;;;;;;3.50;3.50;;;;;23.20;54.06;101052.38;4920525;28;46167;-43
2023/09/29 00:12:26;;;;;;;;;4.25;2.50;;;;;23.16;54.54;101052.53;4920476;28;45343;-42
2023/09/29 00:14:52;;;;;;;;;3.00;3.00;;;;;23.16;54.34;101047.25;4920564;28;45336;-43
2023/09/29 00:17:17;;;;;;;;;5.00;4.00;;;;;23.16;54.01;101049.91;4921065;28;45461;-49
2023/09/29 00:19:42;;;;;;;;;3.75;3.75;;;;;23.15;54.20;101040.25;4920268;28;49918;-51
2023/09/29 00:22:09;;;;;;;;;4.25;3.75;;;;;23.13;54.31;101036.88;4920190;28;48811;-46
2023/09/29 00:24:34;;;;;;;;;5.75;3.50;;;;;23.15;54.30;101031.50;4920570;28;45554;-44
2023/09/29 00:27:00;;;;;;;;;3.50;3.00;;;;;23.13;54.61;101031.56;4920750;28;45661;-45
2023/09/29 00:29:25;;;;;;;;;4.00;4.00;;;;;23.12;54.57;101029.88;4919968;28;54061;-47
2023/09/29 00:31:50;;;;;;;;;3.25;3.25;;;;;23.11;54.30;101033.47;4920363;28;48939;-46
2023/09/29 00:34:18;;;;;;;;;3.75;3.00;;;;;23.10;54.19;101021.19;4919892;28;57241;-44
2023/09/29 00:36:47;;;;;;;;;2.00;2.00;;;;;23.11;54.56;101028.19;4920488;28;45671;-49
2023/09/29 00:39:13;;;;;;;;;3.25;2.00;;;;;23.10;54.71;101026.47;4920184;28;46310;-48
2023/09/29 00:41:39;;;;;;;;;4.00;3.00;;;;;23.07;55.00;101016.13;4920068;28;45343;-45
2023/09/29 00:44:06;;;;;;;;;3.50;3.50;;;;;23.09;54.79;101023.94;4920156;28;45339;-48
2023/09/29 00:46:31;;;;;;;;;3.50;3.50;;;;;23.07;54.32;101025.81;4920313;28;45533;-44
2023/09/29 00:48:57;;;;;;;;;3.25;3.25;;;;;23.05;54.60;101025.06;4919969;28;46327;-44
2023/09/29 00:51:22;;;;;;;;;4.00;4.00;;;;;23.04;54.82;101026.88;4920018;28;45419;-45
2023/09/29 00:53:50;;;;;;;;;3.00;3.00;;;;;23.05;54.81;101028.56;4920410;28;45369;-43
2023/09/29 00:56:16;;;;;;;;;4.00;3.25;;;;;23.06;54.80;101030.28;4918821;28;45644;-45
2023/09/29 00:58:42;;;;;;;;;5.00;3.25;;;;;23.06;54.60;101025.00;4919626;28;46076;-45
2023/09/29 01:01:08;;;;;;;;;4.00;4.00;;;;;23.06;54.76;101014.41;4919852;28;45455;-46
2023/09/29 01:03:33;;;;;;;;;4.00;3.25;;;;;23.07;54.79;101002.03;4919921;28;45307;-48
2023/09/29 01:05:59;;;;;;;;;5.00;3.00;;;;;23.06;54.72;100998.56;4920037;28;45302;-49
2023/09/29 01:08:26;;;;;;;;;4.75;4.00;;;;;23.06;54.77;100987.13;4919689;28;46585;-51
2023/09/29 01:10:55;;;;;;;;;5.00;3.00;;;;;23.04;55.05;100992.50;4920003;28;45268;-50
2023/09/29 01:13:21;;;;;;;;;3.00;3.00;;;;;23.05;54.82;100981.00;4920186;28;45435;-48
2023/09/29 01:15:47;;;;;;;;;4.00;4.00;;;;;23.02;54.93;100981.19;4919810;28;45407;-43
2023/09/29 01:18:12;;;;;;;;;3.25;3.25;;;;;23.01;55.30;100972.41;4919560;28;46263;-45
2023/09/29 01:20:40;;;;;;;;;5.00;3.00;;;;;23.01;55.40;100974.19;4919720;28;45434;-45
2023/09/29 01:23:07;;;;;;;;;4.00;2.00;;;;;23.03;55.03;100977.59;4919786;28;45237;-44
2023/09/29 01:25:33;;;;;;;;;5.25;3.00;;;;;23.05;55.02;100978.34;4919739;28;45246;-47
2023/09/29 01:28:01;;;;;;;;;3.00;3.00;;;;;23.06;54.92;100981.81;4919439;28;45870;-46
2023/09/29 01:30:27;;;;;;;;;3.00;3.00;;;;;23.05;54.92;100975.72;4919331;28;45436;-46
2023/09/29 01:32:56;;;;;;;;;3.00;3.00;;;;;23.08;54.66;100983.44;4919756;28;45385;-48
2023/09/29 01:35:23;;;;;;;;;3.00;3.00;;;;;23.08;54.78;100991.38;4918347;28;45585;-47
2023/09/29 01:37:50;;;;;;;;;4.00;4.00;;;;;23.09;55.15;100984.28;4919247;28;46212;-43
2023/09/29 01:40:17;;;;;;;;;3.25;3.25;;;;;23.10;54.60;100985.97;4919348;28;45279;-43
2023/09/29 01:42:43;;;;;;;;;5.00;3.00;;;;;23.10;55.23;100972.75;4919464;28;45405;-42
2023/09/29 01:45:10;;;;;;;;;4.00;3.00;;;;;23.08;55.09;100986.09;4919276;28;45482;-42
2023/09/29 01:47:39;;;;;;;;;4.00;4.00;;;;;23.10;54.66;100992.09;4919023;28;46846;-41
2023/09/29 01:50:05;;;;;;;;;5.00;3.00;;;;;23.10;55.20;100993.91;4919194;28;45317;-43
2023/09/29 01:52:31;;;;;;;;;5.00;3.25;;;;;23.12;54.78;100992.03;4919299;28;45481;-47
2023/09/29 01:54:56;;;;;;;;;3.75;3.25;;;;;23.11;54.76;100988.50;4919195;28;45758;-44
2023/09/29 01:57:21;;;;;;;;;5.00;4.25;;;;;23.11;54.95;100985.88;4919229;28;45255;-47
2023/09/29 01:59:48;;;;;;;;;3.25;3.25;;;;;23.12;54.37;100982.28;4919017;28;45339;-47
2023/09/29 02:02:14;;;;;;;;;4.00;4.00;;;;;23.14;54.89;100990.97;4918542;28;45294;-44
2023/09/29 02:04:39;;;;;;;;;4.50;4.00;;;;;23.13;54.41;100978.69;4919269;28;45380;-48
2023/09/29 02:07:05;;;;;;;;;3.00;3.00;;;;;23.13;54.56;100976.06;4918795;28;47221;-48
2023/09/29 02:09:30;;;;;;;;;4.00;4.00;;;;;23.14;55.13;100982.22;4918827;28;45325;-47
2023/09/29 02:11:56;;;;;;;;;4.00;3.00;;;;;23.14;54.91;100985.69;4919272;28;45402;-48
2023/09/29 02:14:24;;;;;;;;;4.00;4.00;;;;;23.14;54.70;100987.50;4919256;28;45430;-47
2023/09/29 02:16:50;;;;;;;;;4.00;4.00;;;;;23.14;54.40;100985.69;4917386;28;48320;-48
2023/09/29 02:19:16;;;;;;;;;4.00;3.25;;;;;23.14;54.80;100998.91;4918659;28;45438;-49
2023/09/29 02:21:43;;;;;;;;;3.00;3.00;;;;;23.15;54.48;100990.03;4918843;28;45354;-52
2023/09/29 02:24:08;;;;;;;;;3.75;3.00;;;;;23.14;54.44;100990.97;4919003;28;45410;-49
2023/09/29 02:26:34;;;;;;;;;4.00;3.00;;;;;23.16;54.83;101004.09;4918530;28;46072;-50
2023/09/29 02:29:01;;;;;;;;;3.00;3.00;;;;;23.16;54.88;100999.66;4918680;28;45333;-51
2023/09/29 02:31:26;;;;;;;;;4.00;3.50;;;;;23.15;54.76;100995.31;4918591;28;45372;-49
2023/09/29 02:33:53;;;;;;;;;4.75;3.00;;;;;23.17;54.13;101006.66;4918780;28;45272;-49
2023/09/29 02:36:19;;;;;;;;;3.50;3.50;;;;;23.16;54.61;101002.31;4916738;28;45649;-47
2023/09/29 02:38:44;;;;;;;;;2.25;2.25;;;;;23.18;54.34;101007.47;4918515;28;45756;-48
2023/09/29 02:41:10;;;;;;;;;3.50;3.00;;;;;23.19;54.07;101008.34;4917471;28;45322;-48
2023/09/29 02:43:35;;;;;;;;;5.50;3.00;;;;;23.18;54.08;101002.19;4918000;28;55013;-49
2023/09/29 02:46:00;;;;;;;;;5.75;3.00;;;;;23.19;54.33;100990.72;4918411;28;46784;-46
2023/09/29 02:48:27;;;;;;;;;3.00;3.00;;;;;23.21;53.77;100993.25;4918880;28;45300;-45
2023/09/29 02:50:52;;;;;;;;;4.75;3.00;;;;;23.21;53.74;100980.03;4918517;28;45358;-46
2023/09/29 02:53:18;;;;;;;;;2.75;2.75;;;;;23.22;53.91;100982.59;4918060;28;53235;-47
2023/09/29 02:55:46;;;;;;;;;4.00;2.25;;;;;23.23;53.69;100984.28;4917947;28;50759;-45
2023/09/29 02:58:12;;;;;;;;;3.00;3.00;;;;;23.25;54.16;100987.69;4918458;28;45280;-40
2023/09/29 03:00:39;;;;;;;;;2.25;2.25;;;;;23.24;54.03;100985.97;4918422;28;45287;-46
2023/09/29 03:03:05;;;;;;;;;3.25;2.75;;;;;23.27;53.87;100990.22;4918667;28;45415;-47
2023/09/29 03:05:32;;;;;;;;;5.50;3.50;;;;;23.28;53.92;101002.50;4918213;28;46793;-43
2023/09/29 03:07:58;;;;;;;;;4.00;3.00;;;;;23.29;53.49;101009.50;4918454;28;45271;-50
2023/09/29 03:10:25;;;;;;;;;4.00;4.00;;;;;23.30;53.78;101000.59;4918205;28;45366;-49
2023/09/29 03:12:51;;;;;;;;;4.00;3.00;;;;;23.30;53.72;100990.88;4918870;28;45576;-45
2023/09/29 03:15:16;;;;;;;;;2.00;2.00;;;;;23.30;53.67;100990.88;4921175;28;46241;-44
2023/09/29 03:17:45;;;;;;;;;3.75;2.75;;;;;23.31;53.56;100989.91;4921461;28;45287;-43
2023/09/29 03:20:12;;;;;;;;;3.00;2.75;;;;;23.33;53.78;100994.25;4921500;28;45521;-46
2023/09/29 03:22:39;;;;;;;;;3.00;3.00;;;;;23.32;53.84;100982.81;4921542;28;45457;-44
2023/09/29 03:25:05;;;;;;;;;3.00;2.00;;;;;23.30;53.40;100974.16;4919916;28;48686;-44
2023/09/29 03:27:31;;;;;;;;;3.25;3.00;;;;;23.30;53.91;100979.44;4921466;28;45311;-41
2023/09/29 03:29:58;;;;;;;;;1.00;1.00;;;;;23.30;53.81;100993.50;4921715;28;45387;-48
2023/09/29 03:32:24;;;;;;;;;5.00;2.75;;;;;23.31;53.34;100995.22;4921483;28;45560;-46
2023/09/29 03:34:50;;;;;;;;;2.00;2.00;;;;;23.29;53.87;100989.16;4921022;28;46171;-46
2023/09/29 03:37:15;;;;;;;;;2.75;2.75;;;;;23.30;53.81;100990.03;4920966;28;45560;-48
2023/09/29 03:39:40;;;;;;;;;2.00;2.00;;;;;23.30;53.97;100990.03;4920949;28;50398;-45
2023/09/29 03:42:05;;;;;;;;;3.67;2.00;;;;;23.31;53.31;100997.03;4920644;28;55383;-47
2023/09/29 03:44:32;;;;;;;;;2.25;2.00;;;;;23.33;53.44;100988.97;4920684;28;58729;-47
2023/09/29 03:46:57;;;;;;;;;2.50;2.50;;;;;23.30;53.24;100987.38;4921217;28;45687;-47
2023/09/29 03:49:23;;;;;;;;;2.25;2.00;;;;;23.32;53.47;100985.47;4921183;28;45313;-49
2023/09/29 03:51:48;;;;;;;;;2.00;2.00;;;;;23.32;53.77;100980.19;4921048;28;45339;-48
2023/09/29 03:54:13;;;;;;;;;2.00;2.00;;;;;23.32;53.64;100988.09;4920331;28;56030;-48
2023/09/29 03:56:39;;;;;;;;;2.00;1.75;;;;;23.33;53.56;100999.56;4920731;28;45355;-46
2023/09/29 03:59:05;;;;;;;;;2.00;2.00;;;;;23.31;53.72;100991.72;4920961;28;45327;-47
2023/09/29 04:01:30;;;;;;;;;1.25;1.25;;;;;23.31;54.02;100991.72;4921236;28;45549;-45
2023/09/29 04:03:56;;;;;;;;;2.00;2.00;;;;;23.32;53.46;100998.69;4920606;28;46106;-46
2023/09/29 04:06:21;;;;;;;;;2.50;2.50;;;;;23.31;53.76;100997.03;4920619;28;45341;-47
2023/09/29 04:08:47;;;;;;;;;1.75;1.25;;;;;23.32;54.02;100993.41;4920820;28;45305;-49
2023/09/29 04:11:13;;;;;;;;;2.50;2.50;;;;;23.32;53.69;101001.34;4920960;28;45525;-49
2023/09/29 04:13:38;;;;;;;;;1.00;1.00;;;;;23.32;53.36;101009.25;4920724;28;46598;-48
2023/09/29 04:16:05;;;;;;;;;7.75;2.00;;;;;23.31;53.63;101019.00;4919237;28;45245;-39
2023/09/29 04:18:31;;;;;;;;;3.00;2.00;;;;;23.31;53.37;101034.03;4920972;28;45506;-49
2023/09/29 04:20:56;;;;;;;;;4.50;1.25;;;;;23.32;53.72;101046.28;4920641;28;45581;-46
2023/09/29 04:23:22;;;;;;;;;1.25;1.00;;;;;23.30;53.87;101059.63;4920169;28;46517;-44
2023/09/29 04:25:47;;;;;;;;;2.00;1.00;;;;;23.31;53.23;101061.31;4920152;28;45271;-48
2023/09/29 04:28:13;;;;;;;;;1.25;1.25;;;;;23.31;53.33;101066.63;4920301;28;47446;-46
2023/09/29 04:30:38;;;;;;;;;4.00;2.00;;;;;23.30;53.93;101056.97;4920709;28;45644;-46
2023/09/29 04:33:04;;;;;;;;;2.00;2.00;;;;;23.31;53.40;101053.38;4920578;28;45392;-45
2023/09/29 04:35:29;;;;;;;;;3.00;3.00;;;;;23.32;53.19;101056.88;4920318;28;45390;-48
2023/09/29 04:37:55;;;;;;;;;1.75;1.75;;;;;23.31;53.58;101056.03;4920592;28;45313;-45
2023/09/29 04:40:20;;;;;;;;;3.00;3.00;;;;;23.32;53.49;101043.66;4920180;28;45523;-50
2023/09/29 04:42:45;;;;;;;;;5.00;2.00;;;;;23.31;54.04;101057.84;4920099;28;46513;-44
2023/09/29 04:45:10;;;;;;;;;3.50;2.00;;;;;23.31;53.52;101060.50;4919938;28;45251;-41
2023/09/29 04:47:36;;;;;;;;;1.50;1.50;;;;;23.32;54.16;101064.81;4920251;28;45249;-44
2023/09/29 04:50:02;;;;;;;;;2.00;2.00;;;;;23.32;53.72;101075.38;4920654;28;45243;-46
2023/09/29 04:52:27;;;;;;;;;2.00;2.00;;;;;23.32;53.92;101075.38;4919932;28;46392;-45
2023/09/29 04:54:53;;;;;;;;;1.75;1.00;;;;;23.31;53.71;101069.25;4919872;28;45260;-49
2023/09/29 04:57:18;;;;;;;;;4.25;2.00;;;;;23.33;54.06;101063.84;4920108;28;45363;-52
2023/09/29 04:59:44;;;;;;;;;2.00;2.00;;;;;23.32;53.71;101062.16;4920205;28;45188;-50
2023/09/29 05:02:09;;;;;;;;;4.00;2.50;;;;;23.31;53.54;101066.63;4919804;28;45350;-52
2023/09/29 05:04:35;;;;;;;;;2.00;2.00;;;;;23.32;53.96;101064.81;4920081;28;45358;-47
2023/09/29 05:07:00;;;;;;;;;2.75;1.50;;;;;23.34;53.38;101064.72;4920030;28;45410;-48
2023/09/29 05:09:25;;;;;;;;;2.00;2.00;;;;;23.34;53.28;101075.31;4920057;28;45438;-44
2023/09/29 05:11:51;;;;;;;;;2.75;1.75;;;;;23.31;53.88;101061.31;4919387;28;49583;-44
2023/09/29 05:14:16;;;;;;;;;5.25;1.25;;;;;23.32;53.84;101067.44;4934434;28;45363;-45
2023/09/29 05:16:41;;;;;;;;;2.00;2.00;;;;;23.33;53.63;101071.78;4919623;28;45350;-47
2023/09/29 05:19:07;;;;;;;;;1.00;1.00;;;;;23.33;54.09;101071.78;4920067;28;45825;-48
2023/09/29 05:21:32;;;;;;;;;3.00;2.00;;;;;23.34;53.77;101075.31;4919632;28;46552;-47
2023/09/29 05:23:58;;;;;;;;;2.00;2.00;;;;;23.33;53.75;101074.44;4918290;28;45372;-52
2023/09/29 05:26:23;;;;;;;;;2.25;2.00;;;;;23.31;54.25;101079.00;4919575;28;45285;-50
2023/09/29 05:28:53;;;;;;;;;2.75;2.75;;;;;23.30;53.58;101082.59;4919796;28;45260;-50
2023/09/29 05:31:18;;;;;;;;;1.50;1.00;;;;;23.31;53.99;101081.66;4918109;28;47385;-48
2023/09/29 05:33:44;;;;;;;;;1.75;1.75;;;;;23.30;54.23;101091.34;4918943;28;45232;-46
2023/09/29 05:36:09;;;;;;;;;0.25;0.25;;;;;23.30;54.07;101106.38;4918322;28;46228;-46
2023/09/29 05:38:34;;;;;;;;;4.00;3.00;;;;;23.29;54.07;101110.81;4919900;28;45359;-49
2023/09/29 05:41:00;;;;;;;;;3.00;2.25;;;;;23.30;53.67;101116.97;4919247;28;45761;-52
2023/09/29 05:43:26;;;;;;;;;3.25;1.25;;;;;23.29;54.03;101110.81;4919223;28;45426;-50
2023/09/29 05:45:51;;;;;;;;;2.00;2.00;;;;;23.30;53.95;101122.25;4919269;28;45359;-46
2023/09/29 05:48:16;;;;;;;;;5.50;3.25;;;;;23.30;53.98;101119.63;4919391;28;45477;-47
2023/09/29 05:50:42;;;;;;;;;3.00;2.25;;;;;23.30;53.81;101119.63;4919006;28;46348;-47
2023/09/29 05:53:07;;;;;;;;;4.25;3.00;;;;;23.28;54.08;101124.97;4919399;28;45468;-50
2023/09/29 05:55:33;;;;;;;;;2.75;2.75;;;;;23.29;53.40;101136.44;4918810;28;47044;-51
2023/09/29 05:57:58;;;;;;;;;4.00;2.00;;;;;23.28;53.75;101127.63;4919369;28;45641;-48
2023/09/29 06:00:25;;;;;;;;;4.00;2.00;;;;;23.29;54.03;101131.13;4918949;28;45353;-46
2023/09/29 06:02:51;;;;;;;;;3.00;3.00;;;;;23.28;53.65;101134.72;4918995;28;45918;-47
2023/09/29 06:05:17;;;;;;;;;3.75;3.00;;;;;23.26;53.51;101136.59;4919058;28;45390;-48
2023/09/29 06:07:42;;;;;;;;;3.50;3.00;;;;;23.27;53.55;101148.88;4919298;28;45403;-46
2023/09/29 06:10:09;;;;;;;;;5.00;3.75;;;;;23.26;53.51;101147.19;4919100;28;46114;-45
2023/09/29 06:12:35;;;;;;;;;5.00;3.00;;;;;23.26;53.28;101157.75;4918985;28;45387;-46
2023/09/29 06:15:00;;;;;;;;;4.75;3.50;;;;;23.25;53.19;101156.94;4918983;28;45285;-44
2023/09/29 06:17:25;;;;;;;;;3.50;3.00;;;;;23.27;53.57;101164.75;4918999;28;45416;-46
2023/09/29 06:19:51;;;;;;;;;5.00;4.00;;;;;23.27;53.81;101167.41;4917386;28;47165;-45
2023/09/29 06:22:17;;;;;;;;;5.50;3.50;;;;;23.27;53.62;101159.47;4918685;28;45283;-48
2023/09/29 06:24:44;;;;;;;;;5.75;4.00;;;;;23.27;53.64;101162.94;4918916;28;45310;-46
2023/09/29 06:27:10;;;;;;;;;5.75;3.75;;;;;23.27;53.16;101160.31;4919354;28;45538;-45
2023/09/29 06:29:35;;;;;;;;;5.25;3.00;;;;;23.27;53.27;101164.75;4918636;28;45622;-47
2023/09/29 06:32:00;;;;;;;;;7.00;4.50;;;;;23.27;53.57;101168.22;4918564;28;45245;-45
2023/09/29 06:34:26;;;;;;;;;6.75;4.00;;;;;23.27;53.53;101165.59;4918643;28;45236;-46
2023/09/29 06:36:51;;;;;;;;;6.75;4.00;;;;;23.27;52.96;101167.41;4918859;28;45185;-46
2023/09/29 06:39:17;;;;;;;;;9.25;4.00;;;;;23.27;52.80;101178.81;4918156;28;57754;-44
2023/09/29 06:41:42;;;;;;;;;6.25;5.75;;;;;23.26;52.94;101185.03;4918466;28;45276;-45
2023/09/29 06:44:07;;;;;;;;;7.00;5.00;;;;;23.26;52.85;101194.78;4918817;28;45292;-47
2023/09/29 06:46:33;;;;;;;;;7.00;4.00;;;;;23.25;52.50;101196.59;4917533;28;45409;-44
2023/09/29 06:49:04;;;;;;;;;14.25;7.75;;;;;23.25;52.56;101196.59;4921626;28;46347;-44
2023/09/29 06:51:29;;;;;;;;;10.75;4.00;;;;;23.23;52.72;101190.53;4921659;28;45799;-47
2023/09/29 06:53:54;;;;;;;;;7.25;6.00;;;;;23.24;52.98;101201.97;4921779;28;45307;-46
2023/09/29 06:56:20;;;;;;;;;6.75;4.25;;;;;23.25;52.79;101208.94;4921448;28;45540;-51
2023/09/29 06:58:46;;;;;;;;;7.00;4.50;;;;;23.24;52.25;101209.88;4921591;28;46318;-50
2023/09/29 07:01:12;;;;;;;;;7.25;4.00;;;;;23.25;52.30;101233.63;4921739;28;45766;-42
2023/09/29 07:03:38;;;;;;;;;4.50;4.50;;;;;23.23;52.44;101227.56;4921661;28;45269;-41
2023/09/29 07:06:03;;;;;;;;;9.50;5.50;;;;;23.24;52.60;101238.97;4921943;28;45707;-44
2023/09/29 07:08:29;;;;;;;;;9.25;5.00;;;;;23.23;52.44;101237.28;4921461;28;46360;-48
2023/09/29 07:10:55;;;;;;;;;7.00;6.00;;;;;23.24;52.62;101250.44;4921541;28;45256;-45
2023/09/29 07:13:20;;;;;;;;;5.00;3.00;;;;;23.24;52.12;101254.84;4921598;28;45410;-49
2023/09/29 07:15:46;;;;;;;;;10.00;5.00;;;;;23.25;52.11;101268.00;4921547;28;45414;-47
2023/09/29 07:18:12;;;;;;;;;7.00;4.25;;;;;23.26;52.08;101269.66;4920293;28;48477;-46
2023/09/29 07:20:41;;;;;;;;;7.25;4.75;;;;;23.27;52.15;101274.00;4921242;28;45492;-45
2023/09/29 07:23:08;;;;;;;;;8.75;3.75;;;;;23.26;52.08;101267.03;4921354;28;45319;-45
2023/09/29 07:25:33;;;;;;;;;7.00;4.75;;;;;23.26;52.30;101267.03;4921140;28;45477;-44
2023/09/29 07:27:59;;;;;;;;;7.00;4.00;;;;;23.28;52.05;101277.53;4921109;28;45400;-40
2023/09/29 07:30:25;;;;;;;;;4.50;1.75;;;;;23.28;51.88;101285.47;4921234;28;45483;-47
2023/09/29 07:32:51;;;;;;;;;7.50;3.00;;;;;23.29;52.28;101288.00;4921289;28;45324;-46
2023/09/29 07:35:16;;;;;;;;;7.75;3.75;;;;;23.30;52.36;101286.22;4920056;28;45493;-43
2023/09/29 07:37:41;;;;;;;;;6.75;3.50;;;;;23.31;52.46;101295.88;4936066;28;47251;-43
2023/09/29 07:40:08;;;;;;;;;5.75;4.00;;;;;23.30;52.41;101296.81;4920930;28;45258;-41
2023/09/29 07:42:33;;;;;;;;;4.00;3.00;;;;;23.30;52.41;101302.94;4935915;28;45436;-40
2023/09/29 07:44:59;;;;;;;;;6.75;3.00;;;;;23.32;52.63;101305.47;4921031;28;45640;-41
2023/09/29 07:47:24;;;;;;;;;6.50;4.00;;;;;23.32;51.92;101316.06;4920941;28;46280;-41
2023/09/29 07:49:49;;;;;;;;;5.50;3.00;;;;;23.33;51.99;101320.41;4921018;28;45398;-40
2023/09/29 07:52:15;;;;;;;;;5.75;4.00;;;;;23.33;52.32;101325.69;4921132;28;45457;-40
2023/09/29 07:54:40;;;;;;;;;5.00;3.25;;;;;23.34;51.93;101322.09;4921352;28;45398;-40
2023/09/29 07:57:06;;;;;;;;;2.25;2.00;;;;;23.35;52.44;101326.47;4920323;28;53922;-39
2023/09/29 07:59:32;;;;;;;;;2.75;2.00;;;;;23.37;52.25;101336.97;4920069;28;45736;-43
2023/09/29 08:01:58;;;;;;;;;2.75;2.75;;;;;23.37;52.23;101340.44;4920674;28;45899;-45
2023/09/29 08:04:24;;;;;;;;;4.75;4.00;;;;;23.40;52.34;101331.47;4920966;28;45341;-43
2023/09/29 08:06:49;;;;;;;;;3.50;2.00;;;;;23.38;52.43;101352.72;4920620;28;45270;-46
2023/09/29 08:09:14;;;;;;;;;3.00;2.00;;;;;23.38;52.51;101355.38;4920976;28;45215;-45
2023/09/29 08:11:41;;;;;;;;;5.50;2.00;;;;;23.39;52.56;101365.03;4920858;28;45218;-41
2023/09/29 08:14:06;;;;;;;;;3.00;2.00;;;;;23.40;52.38;101365.84;4920879;28;45263;-46
2023/09/29 08:16:32;;;;;;;;;2.50;1.50;;;;;23.40;52.33;101365.84;4920328;28;45362;-42
2023/09/29 08:18:58;;;;;;;;;5.00;2.00;;;;;23.40;52.14;101379.97;4920552;28;45372;-44
2023/09/29 08:21:23;;;;;;;;;1.00;1.00;;;;;23.40;52.36;101382.59;4920660;28;45529;-47
2023/09/29 08:23:48;;;;;;;;;3.50;1.75;;;;;23.42;52.61;101387.78;4920648;28;45378;-42
2023/09/29 08:26:14;;;;;;;;;3.50;2.00;;;;;23.42;52.51;101388.66;4920522;28;47063;-41
2023/09/29 08:28:39;;;;;;;;;2.75;1.00;;;;;23.42;52.53;101398.38;4920386;28;45382;-45
2023/09/29 08:31:15;;;;;;;;;1.00;1.00;;;;;23.42;52.04;101407.19;4920455;28;45387;-48
2023/09/29 08:33:41;;;;;;;;;6.00;1.75;;;;;23.41;52.59;101416.06;4920637;28;45275;-43
2023/09/29 13:28:22;;;;;;;;;2.00;1.25;;;;;23.39;45.67;101724.78;5454320;23;45780;-58
2023/09/29 13:30:48;;;;;;;;;4.00;2.00;;;;;23.41;45.41;101730.84;4900256;28;45323;-49
2023/09/29 13:33:13;;;;;;;;;4.00;2.00;;;;;23.42;45.86;101729.91;4901129;28;45374;-58
2023/09/29 13:35:38;;;;;;;;;2.00;2.00;;;;;23.43;45.66;101723.66;4899716;29;59520;-60
2023/09/29 13:38:04;;;;;;;;;4.25;1.25;;;;;23.43;45.29;101721.00;4898684;28;45307;-57
2023/09/29 13:40:30;;;;;;;;;3.00;2.00;;;;;23.43;45.21;101721.00;4899807;28;45312;-63
2023/09/29 13:42:55;;;;;;;;;1.00;1.00;;;;;23.44;45.21;101721.88;4899827;28;45255;-62
2023/09/29 13:45:20;;;;;;;;;2.00;2.00;;;;;23.42;44.57;101724.63;4899725;28;46245;-59
2023/09/29 13:47:46;;;;;;;;;2.00;2.00;;;;;23.42;44.96;101734.34;4899595;28;45362;-57
2023/09/29 13:50:11;;;;;;;;;4.00;1.25;;;;;23.41;44.61;101736.16;4899804;28;45259;-56
2023/09/29 13:52:37;;;;;;;;;5.50;2.25;;;;;23.42;43.84;101747.56;4898755;29;45310;-53
2023/09/29 13:55:04;;;;;;;;;2.50;2.00;;;;;23.39;44.01;101748.59;4899502;28;45267;-52
2023/09/29 13:57:30;;;;;;;;;3.00;2.75;;;;;23.41;43.83;101753.78;4898596;28;45340;-53
2023/09/29 13:59:56;;;;;;;;;1.75;1.75;;;;;23.40;44.13;101758.25;4898366;28;45494;-61
2023/09/29 14:02:22;;;;;;;;;0.00;0.00;;;;;23.41;43.87;101765.25;4899665;29;45603;-61
2023/09/29 14:04:47;;;;;;;;;2.75;1.50;;;;;23.42;44.37;101760.78;4899580;28;46247;-62
2023/09/29 14:07:13;;;;;;;;;4.00;2.00;;;;;23.40;43.33;101763.53;4899672;28;45487;-61
2023/09/29 14:09:39;;;;;;;;;4.00;1.75;;;;;23.39;43.43;101761.81;4899572;28;45469;-62
2023/09/29 14:12:05;;;;;;;;;2.75;2.50;;;;;23.41;43.89;101762.59;4899573;28;45374;-61
2023/09/29 14:14:31;;;;;;;;;1.00;1.00;;;;;23.40;43.30;101765.31;4899463;28;47327;-58
2023/09/29 14:16:57;;;;;;;;;2.75;1.00;;;;;23.37;43.22;101758.41;4899187;28;45411;-59
2023/09/29 14:19:22;;;;;;;;;2.00;1.75;;;;;23.39;43.01;101759.16;4899219;28;45378;-60
2023/09/29 14:21:48;;;;;;;;;2.00;2.00;;;;;23.38;43.66;101752.16;4899560;28;45511;-56
2023/09/29 14:24:17;;;;;;;;;4.50;4.00;;;;;23.39;43.35;101760.94;4898673;29;66385;-55
2023/09/29 14:26:43;;;;;;;;;2.75;1.25;;;;;23.38;43.41;101757.47;4899389;28;45764;-58
2023/09/29 14:29:08;;;;;;;;;2.25;2.25;;;;;23.39;43.28;101767.09;4899079;28;45363;-58
2023/09/29 14:31:33;;;;;;;;;3.33;2.33;;;;;23.39;43.14;101761.81;4898521;29;57664;-57
2023/09/29 14:33:59;;;;;;;;;2.75;1.50;;;;;23.39;42.95;101767.09;4898534;29;63478;-55
2023/09/29 14:36:25;;;;;;;;;1.75;1.00;;;;;23.38;43.11;101760.09;4899021;28;45301;-60
2023/09/29 14:38:50;;;;;;;;;5.00;2.00;;;;;23.38;43.11;101760.09;4898824;28;45262;-58
2023/09/29 14:41:15;;;;;;;;;2.25;1.75;;;;;23.38;42.68;101756.59;4898273;29;45677;-60
2023/09/29 14:43:43;;;;;;;;;6.00;2.75;;;;;23.38;42.31;101749.53;4898628;28;45149;-55
2023/09/29 14:46:16;;;;;;;;;4.75;3.00;;;;;23.37;42.62;101741.69;4898931;28;45777;-61
2023/09/29 14:48:41;;;;;;;;;3.00;3.00;;;;;23.37;42.33;101749.63;4898957;28;45364;-56
2023/09/29 14:51:07;;;;;;;;;4.00;2.75;;;;;23.37;42.34;101758.41;4899079;29;45253;-63
2023/09/29 14:53:35;;;;;;;;;3.00;2.25;;;;;23.36;42.34;101751.38;4897409;29;46164;-57
2023/09/29 14:56:08;;;;;;;;;4.00;3.00;;;;;23.36;42.14;101761.97;4899032;28;45426;-60
2023/09/29 14:58:34;;;;;;;;;5.25;3.00;;;;;23.35;42.53;101759.41;4898844;28;45252;-58
2023/09/29 15:00:59;;;;;;;;;6.00;4.00;;;;;23.36;42.11;101767.25;4899089;29;45470;-55
2023/09/29 15:03:26;;;;;;;;;4.75;3.25;;;;;23.36;41.80;101772.56;4898740;28;46296;-53
2023/09/29 15:05:52;;;;;;;;;2.00;2.00;;;;;23.37;41.69;101779.56;4898557;29;45653;-59
2023/09/29 15:08:18;;;;;;;;;3.25;3.25;;;;;23.38;41.53;101777.75;4899747;29;45732;-58
2023/09/29 15:10:44;;;;;;;;;4.00;3.75;;;;;23.36;42.32;101777.00;4902315;29;45552;-55
2023/09/29 15:13:09;;;;;;;;;5.00;3.00;;;;;23.38;41.42;101781.28;4901830;28;46261;-59
2023/09/29 15:15:38;;;;;;;;;5.00;3.00;;;;;23.39;41.22;101779.47;4902023;28;45356;-61
2023/09/29 15:18:04;;;;;;;;;3.50;3.00;;;;;23.39;41.45;101782.09;4901853;28;45406;-59
2023/09/29 15:20:30;;;;;;;;;6.50;5.00;;;;;23.39;41.65;101772.41;4906086;28;45360;-62
2023/09/29 15:22:55;;;;;;;;;6.00;4.75;;;;;23.40;41.33;101770.59;4896276;28;46040;-61
2023/09/29 15:25:21;;;;;;;;;4.50;3.75;;;;;23.39;41.59;101767.09;4901972;28;45403;-59
2023/09/29 15:27:47;;;;;;;;;5.00;4.25;;;;;23.38;41.58;101775.97;4902113;28;45352;-59
2023/09/29 15:30:13;;;;;;;;;7.00;3.75;;;;;23.38;42.10;101775.09;4901863;28;45484;-59
2023/09/29 15:32:38;;;;;;;;;4.00;3.25;;;;;23.38;41.35;101768.03;4900345;29;45350;-60
2023/09/29 15:35:04;;;;;;;;;3.00;3.00;;;;;23.36;41.85;101769.91;4901772;28;45423;-51
2023/09/29 15:37:29;;;;;;;;;3.00;3.00;;;;;23.36;41.25;101777.84;4900417;29;45351;-57
2023/09/29 15:39:54;;;;;;;;;4.75;3.75;;;;;23.36;41.36;101780.50;4916337;28;45438;-56
2023/09/29 15:42:19;;;;;;;;;4.00;2.25;;;;;23.37;42.04;101782.19;4900822;29;66116;-61
2023/09/29 15:44:45;;;;;;;;;1.25;1.25;;;;;23.38;41.80;101786.56;4901057;29;61974;-53
2023/09/29 15:47:10;;;;;;;;;4.25;3.00;;;;;23.36;41.98;101787.59;4901786;28;45438;-53
2023/09/29 15:49:40;;;;;;;;;4.50;3.00;;;;;23.36;42.39;101792.88;4901158;29;55544;-52
2023/09/29 15:52:06;;;;;;;;;5.25;3.00;;;;;23.37;42.07;101779.56;4899988;29;48269;-61
2023/09/29 15:54:32;;;;;;;;;4.75;4.00;;;;;23.37;42.89;101790.13;4901186;28;45515;-53
2023/09/29 15:56:57;;;;;;;;;3.00;2.00;;;;;23.36;42.83;101788.44;4901556;28;45267;-54
2023/09/29 15:59:23;;;;;;;;;3.00;3.00;;;;;23.35;42.95;101807.88;4901369;28;45414;-58
2023/09/29 16:01:48;;;;;;;;;4.75;2.25;;;;;23.37;42.83;101816.59;4900788;28;62156;-60
2023/09/29 16:04:13;;;;;;;;;2.00;2.00;;;;;23.35;42.95;101810.53;4900554;29;60410;-55
2023/09/29 16:06:39;;;;;;;;;3.00;1.00;;;;;23.35;43.05;101810.53;4908126;28;61982;-55
2023/09/29 16:09:04;;;;;;;;;3.00;3.00;;;;;23.35;43.30;101807.88;4904693;28;45521;-52